createdAt,value
2017-09-11T00:01:08.209Z,67.30
2017-09-11T00:03:35.710Z,67.10
2017-09-11T00:06:03.271Z,67.10
2017-09-11T00:08:30.820Z,66.90
2017-09-11T00:10:58.391Z,66.90
2017-09-11T00:13:26.002Z,66.90
2017-09-11T00:15:53.474Z,66.90
2017-09-11T00:18:20.950Z,66.90
2017-09-11T00:20:48.408Z,66.60
2017-09-11T00:23:15.870Z,66.70
2017-09-11T00:25:43.424Z,66.60
2017-09-11T00:28:11.659Z,66.70
2017-09-11T00:30:39.130Z,66.60
2017-09-11T00:33:06.602Z,66.40
2017-09-11T00:35:34.084Z,66.10
2017-09-11T00:38:02.328Z,67.00
2017-09-11T00:40:29.904Z,66.10
2017-09-11T00:42:57.375Z,66.20
2017-09-11T00:45:24.921Z,66.00
2017-09-11T00:47:52.398Z,65.80
2017-09-11T00:50:20.658Z,65.80
2017-09-11T00:52:48.117Z,65.70
2017-09-11T00:55:15.690Z,65.60
2017-09-11T00:57:43.939Z,65.80
2017-09-11T01:00:11.477Z,65.80
2017-09-11T01:02:38.949Z,65.50
2017-09-11T01:05:06.412Z,65.70
2017-09-11T01:07:34.713Z,65.90
2017-09-11T01:10:02.948Z,66.10
2017-09-11T01:12:30.423Z,65.90
2017-09-11T01:14:57.887Z,66.00
2017-09-11T01:17:25.442Z,66.20
2017-09-11T01:19:52.919Z,66.00
2017-09-11T01:22:21.234Z,65.90
2017-09-11T01:24:48.689Z,65.90
2017-09-11T01:27:16.167Z,66.10
2017-09-11T01:29:43.640Z,66.00
2017-09-11T01:32:11.097Z,66.80
2017-09-11T01:34:38.580Z,66.90
2017-09-11T01:37:06.824Z,67.40
2017-09-11T01:39:34.288Z,67.20
2017-09-11T01:42:01.849Z,67.10
2017-09-11T01:44:29.324Z,67.00
2017-09-11T01:46:57.585Z,67.00
2017-09-11T01:49:25.132Z,66.90
2017-09-11T01:51:52.690Z,67.10
2017-09-11T01:54:20.147Z,66.80
2017-09-11T01:56:47.624Z,66.60
2017-09-11T01:59:15.849Z,67.10
2017-09-11T02:01:43.403Z,67.00
2017-09-11T02:04:10.854Z,67.10
2017-09-11T02:06:38.344Z,67.00
2017-09-11T02:09:05.805Z,67.10
2017-09-11T02:11:33.262Z,67.50
2017-09-11T02:14:00.837Z,67.70
2017-09-11T02:16:28.306Z,67.50
2017-09-11T02:18:56.536Z,67.50
2017-09-11T02:21:24.009Z,67.60
2017-09-11T02:23:51.569Z,67.50
2017-09-11T02:26:19.147Z,67.50
2017-09-11T02:28:46.683Z,67.40
2017-09-11T02:31:14.265Z,67.50
2017-09-11T02:33:41.804Z,67.80
2017-09-11T02:36:09.327Z,67.90
2017-09-11T02:38:36.798Z,68.00
2017-09-11T02:41:04.265Z,68.00
2017-09-11T02:43:31.725Z,68.00
2017-09-11T02:45:59.184Z,68.00
2017-09-11T02:48:26.711Z,67.90
2017-09-11T02:50:54.175Z,68.10
2017-09-11T02:53:21.652Z,68.10
2017-09-11T02:55:49.109Z,68.40
2017-09-11T02:58:16.572Z,68.50
2017-09-11T03:00:44.036Z,68.50
2017-09-11T03:03:11.506Z,68.30
2017-09-11T03:05:39.733Z,69.60
2017-09-11T03:08:07.200Z,68.60
2017-09-11T03:10:34.657Z,68.80
2017-09-11T03:13:02.142Z,68.70
2017-09-11T03:15:29.614Z,68.90
2017-09-11T03:17:57.883Z,69.20
2017-09-11T03:20:26.148Z,69.30
2017-09-11T03:22:53.710Z,69.30
2017-09-11T03:25:21.265Z,69.50
2017-09-11T03:27:48.826Z,69.30
2017-09-11T03:30:16.455Z,69.50
2017-09-11T03:32:43.934Z,69.80
2017-09-11T03:35:11.506Z,69.90
2017-09-11T03:37:39.746Z,70.20
2017-09-11T03:40:07.222Z,69.90
2017-09-11T03:42:34.699Z,70.00
2017-09-11T03:45:02.938Z,70.60
2017-09-11T03:47:30.416Z,70.00
2017-09-11T03:49:58.659Z,69.80
2017-09-11T03:52:26.131Z,69.70
2017-09-11T03:54:53.609Z,69.70
2017-09-11T03:57:21.070Z,69.90
2017-09-11T03:59:49.346Z,69.90
2017-09-11T04:02:17.572Z,70.90
2017-09-11T04:04:45.065Z,70.00
2017-09-11T04:07:12.630Z,70.20
2017-09-11T04:09:40.093Z,70.10
2017-09-11T04:12:07.580Z,70.10
2017-09-11T04:14:35.104Z,70.30
2017-09-11T04:17:02.676Z,70.30
2017-09-11T04:19:31.038Z,71.00
2017-09-11T04:21:58.614Z,70.10
2017-09-11T04:24:26.859Z,69.90
2017-09-11T04:26:54.340Z,69.90
2017-09-11T04:29:22.658Z,70.60
2017-09-11T04:31:50.217Z,69.90
2017-09-11T04:34:17.888Z,69.80
2017-09-11T04:36:45.352Z,70.00
2017-09-11T04:39:12.840Z,70.20
2017-09-11T04:41:40.304Z,70.10
2017-09-11T04:44:08.579Z,69.90
2017-09-11T04:46:36.138Z,69.90
2017-09-11T04:49:03.597Z,70.20
2017-09-11T04:51:31.877Z,70.10
2017-09-11T04:54:00.112Z,70.00
2017-09-11T04:56:27.706Z,69.80
2017-09-11T04:58:55.253Z,70.00
2017-09-11T05:01:22.709Z,70.00
2017-09-11T05:03:50.184Z,69.90
2017-09-11T05:06:18.420Z,69.50
2017-09-11T05:08:45.887Z,69.50
2017-09-11T05:11:13.358Z,69.40
2017-09-11T05:13:40.818Z,69.30
2017-09-11T05:16:08.372Z,69.30
2017-09-11T05:18:35.932Z,69.50
2017-09-11T05:21:03.496Z,69.40
2017-09-11T05:23:31.736Z,69.30
2017-09-11T05:25:59.226Z,69.10
2017-09-11T05:28:26.702Z,69.10
2017-09-11T05:30:54.161Z,68.90
2017-09-11T05:33:22.411Z,69.10
2017-09-11T05:35:49.889Z,69.10
2017-09-11T05:38:18.123Z,70.30
2017-09-11T05:40:45.603Z,70.20
2017-09-11T05:43:13.075Z,70.50
2017-09-11T05:45:40.533Z,69.80
2017-09-11T05:48:07.999Z,69.50
2017-09-11T05:50:36.278Z,68.70
2017-09-11T05:53:03.750Z,68.60
2017-09-11T05:55:31.209Z,68.90
2017-09-11T05:57:58.673Z,68.20
2017-09-11T06:00:26.174Z,68.30
2017-09-11T06:02:53.632Z,68.70
2017-09-11T06:05:21.203Z,68.50
2017-09-11T06:07:49.489Z,68.00
2017-09-11T06:10:17.746Z,67.40
2017-09-11T06:12:45.297Z,67.40
2017-09-11T06:15:13.633Z,66.70
2017-09-11T06:17:41.132Z,66.70
2017-09-11T06:20:08.594Z,66.90
2017-09-11T06:22:36.146Z,66.90
2017-09-11T06:25:03.627Z,66.90
2017-09-11T06:27:31.857Z,66.10
2017-09-11T06:29:59.342Z,66.00
2017-09-11T06:32:26.818Z,65.90
2017-09-11T06:34:54.298Z,65.90
2017-09-11T06:37:21.967Z,65.00
2017-09-11T06:39:49.429Z,65.10
2017-09-11T06:42:16.883Z,64.80
2017-09-11T06:44:44.350Z,64.30
2017-09-11T06:47:11.829Z,64.10
2017-09-11T06:49:39.299Z,64.60
2017-09-11T06:52:06.856Z,64.10
2017-09-11T06:54:34.405Z,63.70
2017-09-11T06:57:01.972Z,64.20
2017-09-11T06:59:29.485Z,63.90
2017-09-11T07:01:56.957Z,64.20
2017-09-11T07:04:24.417Z,63.60
2017-09-11T07:06:51.901Z,64.20
2017-09-11T07:09:19.456Z,64.00
2017-09-11T07:11:46.925Z,64.50
2017-09-11T07:14:15.179Z,64.30
2017-09-11T07:16:42.642Z,64.10
2017-09-11T07:19:10.117Z,64.30
2017-09-11T07:21:38.398Z,64.90
2017-09-11T07:24:06.648Z,63.50
2017-09-11T07:26:34.272Z,63.40
2017-09-11T07:29:01.741Z,63.20
2017-09-11T07:31:29.238Z,63.20
2017-09-11T07:33:56.705Z,63.80
2017-09-11T07:36:24.943Z,62.60
2017-09-11T07:38:52.543Z,62.40
2017-09-11T07:41:20.784Z,61.30
2017-09-11T07:43:49.126Z,61.20
2017-09-11T07:46:16.599Z,61.30
2017-09-11T07:48:44.074Z,61.60
2017-09-11T07:51:11.652Z,62.00
2017-09-11T07:53:39.119Z,61.50
2017-09-11T07:56:07.362Z,61.00
2017-09-11T07:58:34.934Z,60.90
2017-09-11T08:01:02.551Z,61.20
2017-09-11T08:03:30.009Z,60.70
2017-09-11T08:05:57.500Z,60.90
2017-09-11T08:08:25.057Z,60.50
2017-09-11T08:10:52.517Z,61.90
2017-09-11T08:13:19.976Z,62.00
2017-09-11T08:15:47.436Z,60.80
2017-09-11T08:18:14.889Z,59.70
2017-09-11T08:20:42.383Z,59.20
2017-09-11T08:23:09.837Z,59.70
2017-09-11T08:25:37.296Z,59.80
2017-09-11T08:28:04.754Z,58.80
2017-09-11T08:30:32.287Z,59.00
2017-09-11T08:32:59.755Z,59.00
2017-09-11T08:35:27.988Z,58.80
2017-09-11T08:37:55.471Z,58.70
2017-09-11T08:40:23.018Z,57.50
2017-09-11T08:42:50.477Z,58.20
2017-09-11T08:45:18.033Z,58.50
2017-09-11T08:47:45.489Z,58.60
2017-09-11T08:50:12.955Z,57.60
2017-09-11T08:52:40.417Z,57.40
2017-09-11T08:55:07.981Z,56.90
2017-09-11T08:57:36.205Z,57.00
2017-09-11T09:00:03.718Z,56.90
2017-09-11T09:02:32.032Z,57.10
2017-09-11T09:04:59.500Z,57.00
2017-09-11T09:07:26.990Z,57.70
2017-09-11T09:09:54.604Z,57.60
2017-09-11T09:12:22.071Z,58.30
2017-09-11T09:14:49.535Z,57.90
2017-09-11T09:17:16.996Z,56.50
2017-09-11T09:19:44.459Z,56.20
2017-09-11T09:22:11.917Z,56.60
2017-09-11T09:24:39.379Z,56.70
2017-09-11T09:27:06.843Z,56.90
2017-09-11T09:29:34.289Z,56.50
2017-09-11T09:32:01.875Z,56.40
2017-09-11T09:34:29.408Z,56.70
2017-09-11T09:36:56.884Z,56.10
2017-09-11T09:39:24.447Z,55.10
2017-09-11T09:41:51.947Z,55.00
2017-09-11T09:44:19.629Z,56.20
2017-09-11T09:46:47.126Z,55.20
2017-09-11T09:49:15.552Z,54.70
2017-09-11T09:51:43.248Z,54.70
2017-09-11T09:54:10.877Z,54.40
2017-09-11T09:56:38.845Z,54.60
2017-09-11T09:59:06.353Z,54.40
2017-09-11T10:01:33.818Z,54.60
2017-09-11T10:04:02.229Z,53.90
2017-09-11T10:06:30.526Z,54.00
2017-09-11T10:08:58.019Z,53.90
2017-09-11T10:11:25.473Z,52.90
2017-09-11T10:13:53.718Z,52.30
2017-09-11T10:16:21.211Z,52.00
2017-09-11T10:18:49.438Z,51.20
2017-09-11T10:21:16.889Z,51.20
2017-09-11T10:23:44.382Z,50.10
2017-09-11T10:26:11.847Z,50.30
2017-09-11T10:28:40.087Z,51.60
2017-09-11T10:31:07.578Z,51.50
2017-09-11T10:33:35.825Z,50.90
2017-09-11T10:36:03.361Z,50.90
2017-09-11T10:38:30.820Z,49.90
2017-09-11T10:40:58.337Z,50.20
2017-09-11T10:43:26.570Z,48.30
2017-09-11T10:45:54.051Z,48.30
2017-09-11T10:48:21.521Z,49.40
2017-09-11T10:50:49.794Z,49.30
2017-09-11T10:53:17.268Z,49.20
2017-09-11T10:55:45.498Z,49.90
2017-09-11T10:58:13.028Z,49.80
2017-09-11T11:00:40.486Z,50.40
2017-09-11T11:03:07.995Z,50.20
2017-09-11T11:05:35.445Z,48.80
2017-09-11T11:08:03.008Z,49.80
2017-09-11T11:10:30.508Z,49.10
2017-09-11T11:12:57.975Z,49.30
2017-09-11T11:15:25.478Z,48.80
2017-09-11T11:17:53.039Z,49.30
2017-09-11T11:20:20.602Z,49.00
2017-09-11T11:22:48.924Z,50.40
2017-09-11T11:25:16.585Z,50.00
2017-09-11T11:27:44.037Z,49.60
2017-09-11T11:30:11.550Z,49.60
2017-09-11T11:32:39.023Z,48.80
2017-09-11T11:35:07.280Z,49.00
2017-09-11T11:37:34.835Z,48.80
2017-09-11T11:40:02.585Z,48.70
2017-09-11T11:42:30.040Z,48.40
2017-09-11T11:45:31.169Z,49.30
2017-09-11T11:47:58.637Z,48.70
2017-09-11T11:50:26.118Z,49.50
2017-09-11T11:52:53.946Z,49.10
2017-09-11T11:55:21.541Z,50.10
2017-09-11T11:57:49.085Z,50.30
2017-09-11T12:00:16.544Z,49.80
2017-09-11T12:02:44.010Z,50.20
2017-09-11T12:05:11.500Z,49.20
2017-09-11T12:07:39.743Z,50.30
2017-09-11T12:10:07.212Z,50.30
2017-09-11T12:12:34.708Z,50.20
2017-09-11T12:15:02.363Z,50.10
2017-09-11T12:17:29.956Z,50.60
2017-09-11T12:19:57.583Z,50.90
2017-09-11T12:22:25.041Z,50.50
2017-09-11T12:24:52.509Z,50.70
2017-09-11T12:27:19.987Z,51.00
2017-09-11T12:29:47.476Z,51.50
2017-09-11T12:32:14.942Z,50.90
2017-09-11T12:34:43.176Z,51.30
2017-09-11T12:37:10.745Z,51.30
2017-09-11T12:39:38.306Z,51.10
2017-09-11T12:42:05.776Z,51.50
2017-09-11T12:44:34.050Z,51.70
2017-09-11T12:47:02.321Z,52.20
2017-09-11T12:49:29.871Z,52.10
2017-09-11T12:51:57.445Z,51.90
2017-09-11T12:54:24.924Z,52.20
2017-09-11T12:56:53.145Z,52.40
2017-09-11T12:59:20.625Z,52.40
2017-09-11T13:01:48.186Z,54.00
2017-09-11T13:04:15.649Z,54.20
2017-09-11T13:06:43.122Z,54.60
2017-09-11T13:09:11.356Z,54.90
2017-09-11T13:11:38.884Z,54.90
2017-09-11T13:14:06.358Z,54.70
2017-09-11T13:16:33.823Z,55.20
2017-09-11T13:19:01.393Z,54.70
2017-09-11T13:21:28.854Z,54.20
2017-09-11T13:23:57.925Z,54.20
2017-09-11T13:26:25.421Z,54.10
2017-09-11T13:28:53.682Z,53.60
2017-09-11T13:31:21.161Z,53.40
2017-09-11T13:33:49.478Z,53.40
2017-09-11T13:36:16.933Z,53.40
2017-09-11T13:38:44.401Z,53.00
2017-09-11T13:41:12.167Z,51.60
2017-09-11T13:43:39.628Z,51.30
2017-09-11T13:46:07.109Z,52.30
2017-09-11T13:48:34.684Z,51.50
2017-09-11T13:51:02.916Z,50.10
2017-09-11T13:53:30.406Z,50.00
2017-09-11T13:55:57.957Z,50.70
2017-09-11T13:58:25.430Z,50.90
2017-09-11T14:00:53.653Z,51.40
2017-09-11T14:03:21.121Z,50.70
2017-09-11T14:05:48.581Z,51.60
2017-09-11T14:08:16.047Z,52.10
2017-09-11T14:10:43.505Z,52.00
2017-09-11T14:13:11.132Z,52.00
2017-09-11T14:15:38.633Z,52.30
2017-09-11T14:18:06.098Z,52.10
2017-09-11T14:20:33.658Z,53.00
2017-09-11T14:23:01.114Z,53.60
2017-09-11T14:25:29.013Z,53.40
2017-09-11T14:27:56.437Z,53.00
2017-09-11T14:30:23.981Z,52.50
2017-09-11T14:32:51.540Z,53.30
2017-09-11T14:35:19.765Z,52.60
2017-09-11T14:37:47.239Z,52.70
2017-09-11T14:40:14.772Z,52.90
2017-09-11T14:42:42.236Z,52.90
2017-09-11T14:45:09.710Z,53.40
2017-09-11T14:47:37.175Z,53.50
2017-09-11T14:50:04.629Z,53.40
2017-09-11T14:52:32.099Z,53.60
2017-09-11T14:54:59.562Z,53.80
2017-09-11T14:57:27.021Z,54.00
2017-09-11T14:59:54.598Z,53.60
2017-09-11T15:02:22.056Z,53.70
2017-09-11T15:04:49.510Z,54.20
2017-09-11T15:07:16.982Z,54.10
2017-09-11T15:09:45.229Z,54.00
2017-09-11T15:12:12.689Z,53.90
2017-09-11T15:14:40.922Z,54.50
2017-09-11T15:17:08.434Z,54.40
2017-09-11T15:19:36.755Z,54.50
2017-09-11T15:22:04.370Z,54.50
2017-09-11T15:24:31.859Z,55.10
2017-09-11T15:26:59.339Z,54.60
2017-09-11T15:29:26.819Z,54.80
2017-09-11T15:31:54.291Z,55.30
2017-09-11T15:34:21.745Z,55.10
2017-09-11T15:36:50.724Z,55.30
2017-09-11T15:39:18.186Z,55.20
2017-09-11T15:41:45.766Z,55.40
2017-09-11T15:44:14.031Z,55.30
2017-09-11T15:46:43.076Z,55.00
2017-09-11T15:49:10.583Z,55.00
2017-09-11T15:51:38.040Z,55.10
2017-09-11T15:54:05.506Z,55.00
2017-09-11T15:56:32.991Z,55.00
2017-09-11T15:59:00.446Z,55.10
2017-09-11T16:01:27.922Z,54.90
2017-09-11T16:03:55.422Z,54.70
2017-09-11T16:06:22.976Z,55.10
2017-09-11T16:08:50.544Z,55.20
2017-09-11T16:11:18.037Z,55.40
2017-09-11T16:13:45.505Z,55.60
2017-09-11T16:16:12.969Z,55.50
2017-09-11T16:18:40.466Z,55.60
2017-09-11T16:21:08.746Z,54.40
2017-09-11T16:23:36.263Z,54.40
2017-09-11T16:26:03.820Z,52.60
2017-09-11T16:28:31.284Z,53.00
2017-09-11T16:30:58.757Z,53.40
2017-09-11T16:33:27.045Z,53.50
2017-09-11T16:35:54.495Z,53.40
2017-09-11T16:38:22.024Z,53.80
2017-09-11T16:40:49.527Z,53.80
2017-09-11T16:43:16.992Z,54.50
2017-09-11T16:45:45.253Z,55.00
2017-09-11T16:48:12.716Z,55.00
2017-09-11T16:50:40.191Z,55.30
2017-09-11T16:53:08.439Z,55.40
2017-09-11T16:55:35.995Z,55.40
2017-09-11T16:58:03.472Z,55.60
2017-09-11T17:00:31.703Z,56.20
2017-09-11T17:02:59.179Z,56.20
2017-09-11T17:05:26.744Z,56.00
2017-09-11T17:07:55.077Z,56.20
2017-09-11T17:10:22.549Z,56.10
2017-09-11T17:12:50.047Z,56.10
2017-09-11T17:15:17.594Z,56.20
2017-09-11T17:17:45.155Z,56.60
2017-09-11T17:20:12.633Z,56.80
2017-09-11T17:22:40.943Z,57.00
2017-09-11T17:25:08.403Z,56.90
2017-09-11T17:27:35.878Z,56.80
2017-09-11T17:30:03.334Z,57.00
2017-09-11T17:32:30.802Z,57.00
2017-09-11T17:34:58.261Z,57.20
2017-09-11T17:37:25.720Z,57.20
2017-09-11T17:39:53.177Z,57.40
2017-09-11T17:42:20.647Z,57.60
2017-09-11T17:44:48.098Z,57.70
2017-09-11T17:47:16.426Z,57.40
2017-09-11T17:49:43.880Z,57.50
2017-09-11T17:52:11.404Z,57.20
2017-09-11T17:54:39.663Z,57.40
2017-09-11T17:57:07.227Z,57.40
2017-09-11T17:59:34.779Z,57.40
2017-09-11T18:02:03.009Z,57.40
2017-09-11T18:04:30.505Z,57.50
2017-09-11T18:06:57.975Z,57.50
2017-09-11T18:09:25.450Z,57.50
2017-09-11T18:11:53.687Z,57.50
2017-09-11T18:14:21.171Z,57.50
2017-09-11T18:16:49.404Z,58.50
2017-09-11T18:19:16.872Z,57.80
2017-09-11T18:21:44.343Z,57.70
2017-09-11T18:24:11.802Z,58.00
2017-09-11T18:26:39.477Z,58.20
2017-09-11T18:29:06.937Z,58.10
2017-09-11T18:31:35.276Z,58.50
2017-09-11T18:34:02.755Z,58.40
2017-09-11T18:36:30.982Z,58.80
2017-09-11T18:38:58.489Z,58.80
2017-09-11T18:41:25.954Z,58.70
2017-09-11T18:43:53.431Z,59.00
2017-09-11T18:46:20.904Z,59.10
2017-09-11T18:48:48.461Z,59.10
2017-09-11T18:51:15.987Z,59.10
2017-09-11T18:53:44.269Z,59.00
2017-09-11T18:56:12.681Z,59.10
2017-09-11T18:58:40.170Z,59.00
2017-09-11T19:01:07.706Z,59.10
2017-09-11T19:03:35.160Z,59.20
2017-09-11T19:06:02.694Z,59.20
2017-09-11T19:08:30.177Z,59.20
2017-09-11T19:10:57.675Z,59.30
2017-09-11T19:13:25.195Z,59.20
2017-09-11T19:15:52.658Z,59.10
2017-09-11T19:18:20.177Z,59.20
2017-09-11T19:20:48.472Z,59.10
2017-09-11T19:23:15.959Z,59.00
2017-09-11T19:25:43.432Z,59.30
2017-09-11T19:28:11.701Z,59.00
2017-09-11T19:30:39.195Z,59.10
2017-09-11T19:33:07.436Z,59.30
2017-09-11T19:35:34.901Z,59.80
2017-09-11T19:38:03.860Z,59.30
2017-09-11T19:40:31.400Z,59.30
2017-09-11T19:42:58.848Z,59.30
2017-09-11T19:45:26.326Z,59.20
2017-09-11T19:47:53.811Z,59.40
2017-09-11T19:50:21.287Z,59.50
2017-09-11T19:52:48.745Z,59.60
2017-09-11T19:55:16.970Z,59.70
2017-09-11T19:57:44.451Z,59.60
2017-09-11T20:00:12.031Z,59.90
2017-09-11T20:02:39.494Z,60.50
2017-09-11T20:05:07.739Z,61.30
2017-09-11T20:07:35.205Z,61.10
2017-09-11T20:10:02.686Z,61.80
2017-09-11T20:12:30.922Z,62.50
2017-09-11T20:14:58.385Z,62.50
2017-09-11T20:17:25.847Z,63.00
2017-09-11T20:19:53.329Z,63.50
2017-09-11T20:22:21.590Z,64.00
2017-09-11T20:24:49.137Z,63.90
2017-09-11T20:27:16.629Z,64.60
2017-09-11T20:29:44.158Z,64.80
2017-09-11T20:32:11.718Z,64.80
2017-09-11T20:34:39.186Z,65.20
2017-09-11T20:37:06.735Z,64.60
2017-09-11T20:39:34.201Z,65.40
2017-09-11T20:42:02.424Z,66.90
2017-09-11T20:44:29.926Z,66.60
2017-09-11T20:46:57.404Z,66.20
2017-09-11T20:49:25.633Z,66.70
2017-09-11T20:51:53.167Z,66.70
2017-09-11T20:54:20.640Z,67.10
2017-09-11T20:56:48.123Z,67.00
2017-09-11T20:59:15.676Z,66.60
2017-09-11T21:01:43.153Z,66.70
2017-09-11T21:04:11.408Z,67.10
2017-09-11T21:06:38.879Z,67.00
2017-09-11T21:09:06.366Z,67.10
2017-09-11T21:11:33.955Z,67.60
2017-09-11T21:14:02.263Z,67.10
2017-09-11T21:16:29.851Z,67.00
2017-09-11T21:18:57.285Z,66.90
2017-09-11T21:21:24.756Z,67.50
2017-09-11T21:23:53.024Z,67.30
2017-09-11T21:26:21.252Z,67.20
2017-09-11T21:28:48.807Z,67.10
2017-09-11T21:31:16.998Z,67.20
2017-09-11T21:33:45.297Z,67.20
2017-09-11T21:36:12.860Z,66.60
2017-09-11T21:38:40.332Z,66.90
2017-09-11T21:41:08.579Z,67.10
2017-09-11T21:43:36.053Z,67.10
2017-09-11T21:46:04.303Z,67.00
2017-09-11T21:48:31.761Z,66.80
2017-09-11T21:50:59.328Z,66.80
2017-09-11T21:53:26.803Z,66.90
2017-09-11T21:55:54.351Z,66.60
2017-09-11T21:58:21.826Z,66.10
2017-09-11T22:00:50.065Z,66.00
2017-09-11T22:03:17.524Z,65.90
2017-09-11T22:05:46.540Z,65.90
2017-09-11T22:08:14.776Z,65.50
2017-09-11T22:10:42.241Z,65.50
2017-09-11T22:13:09.824Z,66.00
2017-09-11T22:15:38.067Z,66.60
2017-09-11T22:18:05.542Z,65.70
2017-09-11T22:20:33.012Z,65.70
2017-09-11T22:23:00.564Z,65.60
2017-09-11T22:25:28.025Z,65.80
2017-09-11T22:27:55.591Z,65.90
2017-09-11T22:30:23.857Z,66.30
2017-09-11T22:32:51.420Z,66.20
2017-09-11T22:35:19.649Z,66.40
2017-09-11T22:37:47.109Z,66.30
2017-09-11T22:40:14.617Z,66.30
2017-09-11T22:42:42.845Z,66.90
2017-09-11T22:45:10.330Z,66.60
2017-09-11T22:47:37.789Z,66.20
2017-09-11T22:50:05.262Z,66.10
2017-09-11T22:52:33.502Z,66.80
2017-09-11T22:55:00.969Z,65.90
2017-09-11T22:57:28.542Z,66.00
2017-09-11T22:59:56.783Z,65.90
2017-09-11T23:02:24.258Z,65.80
2017-09-11T23:04:51.792Z,65.60
2017-09-11T23:07:19.267Z,65.40
2017-09-11T23:09:46.724Z,65.10
2017-09-11T23:12:14.201Z,65.00
2017-09-11T23:14:41.756Z,65.00
2017-09-11T23:17:09.339Z,65.00
2017-09-11T23:19:37.608Z,65.00
2017-09-11T23:22:05.070Z,64.80
2017-09-11T23:24:33.333Z,64.90
2017-09-11T23:27:00.875Z,64.70
2017-09-11T23:29:28.333Z,64.50
2017-09-11T23:31:55.810Z,64.40
2017-09-11T23:34:24.037Z,65.00
2017-09-11T23:36:51.518Z,64.10
2017-09-11T23:39:18.996Z,64.00
2017-09-11T23:41:47.254Z,64.30
2017-09-11T23:44:14.708Z,63.70
2017-09-11T23:46:42.187Z,63.70
2017-09-11T23:49:10.409Z,63.70
2017-09-11T23:51:37.933Z,63.70
2017-09-11T23:54:05.382Z,63.30
2017-09-11T23:56:33.623Z,63.20
2017-09-11T23:59:01.101Z,63.10
